Time;durP1;ratioP1;P1;durP2;ratioP2;P2;SDS_P1;SDS_P2;PMS_P1;PMS_P2;Temp;Humidity;BMP_temperature;BMP_pressure;BME280_temperature;BME280_humidity;BME280_pressure;Samples;Min_cycle;Max_cycle;Signal;HPM_P1;HPM_P2
2022/05/29 00:01:14;;;;;;;13.73;5.20;;;25.20;57.70;;;;;;4938079;29;20374;-69
2022/05/29 00:03:40;;;;;;;14.95;5.28;;;25.10;58.50;;;;;;4938297;29;20063;-70
2022/05/29 00:06:06;;;;;;;21.40;5.90;;;25.10;59.00;;;;;;4938152;29;20384;-70
2022/05/29 00:08:36;;;;;;;18.75;6.03;;;25.10;59.80;;;;;;4937945;29;20028;-68
2022/05/29 00:11:02;;;;;;;15.82;5.65;;;25.00;60.50;;;;;;4938088;29;20032;-72
2022/05/29 00:13:28;;;;;;;16.55;6.20;;;25.10;61.10;;;;;;4938152;29;20032;-71
2022/05/29 00:15:55;;;;;;;14.90;5.88;;;25.10;61.40;;;;;;4937766;29;20465;-71
2022/05/29 00:18:21;;;;;;;15.05;5.75;;;25.10;62.20;;;;;;4937801;29;20028;-71
2022/05/29 00:20:51;;;;;;;16.70;5.97;;;25.20;62.80;;;;;;4937806;29;20032;-71
2022/05/29 00:23:17;;;;;;;16.95;6.57;;;25.20;63.30;;;;;;4937731;29;20055;-72
2022/05/29 00:25:50;;;;;;;16.35;6.20;;;25.20;63.70;;;;;;4937888;29;20465;-70
2022/05/29 00:28:16;;;;;;;19.98;7.38;;;25.20;64.10;;;;;;4937941;29;20483;-72
2022/05/29 00:30:41;;;;;;;19.40;6.72;;;25.20;64.50;;;;;;4937817;29;20031;-73
2022/05/29 00:33:08;;;;;;;20.55;6.57;;;25.20;65.30;;;;;;4936276;29;20027;-70
2022/05/29 00:35:37;;;;;;;16.02;6.90;;;25.20;65.60;;;;;;4938004;29;20111;-71
2022/05/29 00:38:03;;;;;;;15.18;6.00;;;25.20;65.80;;;;;;4936102;29;20043;-72
2022/05/29 00:40:41;;;;;;;19.65;6.47;;;25.20;66.30;;;;;;4937419;29;20023;-71
2022/05/29 00:43:07;;;;;;;20.50;7.15;;;25.30;66.50;;;;;;4937784;29;20031;-72
2022/05/29 00:45:43;;;;;;;14.25;6.50;;;25.30;67.10;;;;;;4937764;29;20015;-73
2022/05/29 00:48:15;;;;;;;19.48;7.05;;;25.30;67.60;;;;;;4937651;29;20064;-71
2022/05/29 00:50:41;;;;;;;20.42;6.78;;;25.30;68.10;;;;;;4937413;29;20111;-73
2022/05/29 00:53:07;;;;;;;16.45;7.20;;;25.30;68.30;;;;;;4937385;29;20055;-68
2022/05/29 00:55:33;;;;;;;23.98;6.93;;;25.20;68.80;;;;;;4935971;29;20087;-67
2022/05/29 00:58:02;;;;;;;17.48;5.88;;;25.20;68.90;;;;;;4937184;29;20050;-69
2022/05/29 01:00:31;;;;;;;14.45;5.22;;;25.20;67.60;;;;;;4937113;29;20026;-68
2022/05/29 01:02:59;;;;;;;14.60;4.88;;;25.10;66.00;;;;;;4936942;29;20024;-68
2022/05/29 01:05:28;;;;;;;10.88;4.18;;;25.00;64.00;;;;;;4936953;29;20034;-67
2022/05/29 01:08:24;;;;;;;15.25;4.60;;;24.90;62.70;;;;;;4937201;29;20127;-68
2022/05/29 01:10:50;;;;;;;14.13;3.92;;;24.80;61.60;;;;;;4936891;29;20012;-68
2022/05/29 01:13:42;;;;;;;12.10;3.75;;;24.80;60.60;;;;;;4936837;29;20099;-68
2022/05/29 01:16:22;;;;;;;12.50;3.78;;;24.80;59.80;;;;;;4936805;29;20087;-68
2022/05/29 01:19:16;;;;;;;13.93;3.92;;;24.70;59.20;;;;;;4936910;29;20044;-67
2022/05/29 01:21:55;;;;;;;14.60;3.55;;;24.60;59.00;;;;;;4937120;29;20027;-67
2022/05/29 01:24:26;;;;;;;12.07;3.47;;;24.60;58.70;;;;;;4936851;29;20402;-67
2022/05/29 01:27:25;;;;;;;11.68;3.63;;;24.60;57.90;;;;;;4936910;29;20027;-68
2022/05/29 01:30:05;;;;;;;11.93;3.35;;;24.40;57.50;;;;;;4920770;29;20066;-70
2022/05/29 01:32:47;;;;;;;8.60;2.78;;;24.30;57.90;;;;;;4936550;29;20039;-70
2022/05/29 01:35:22;;;;;;;15.68;3.20;;;24.30;57.90;;;;;;4936656;29;20106;-69
2022/05/29 01:38:10;;;;;;;11.93;2.83;;;24.20;57.70;;;;;;4936520;29;20031;-69
2022/05/29 01:40:40;;;;;;;11.35;3.50;;;24.10;57.20;;;;;;4936363;29;20020;-68
2022/05/29 01:43:31;;;;;;;9.43;3.13;;;24.10;57.90;;;;;;4936400;29;20031;-68
2022/05/29 01:46:11;;;;;;;13.50;2.78;;;24.10;57.90;;;;;;4935569;29;20035;-69
2022/05/29 01:48:54;;;;;;;12.20;3.05;;;23.90;58.10;;;;;;4936110;29;20346;-69
2022/05/29 01:51:24;;;;;;;12.17;3.67;;;23.80;58.20;;;;;;4935949;29;20083;-68
2022/05/29 01:53:59;;;;;;;11.63;3.40;;;23.80;58.30;;;;;;4936366;29;20280;-68
2022/05/29 01:56:39;;;;;;;10.52;3.22;;;23.70;58.30;;;;;;4936192;29;20027;-69
2022/05/29 01:59:11;;;;;;;16.20;3.67;;;23.70;58.50;;;;;;4934812;29;20118;-68
2022/05/29 02:01:48;;;;;;;10.18;3.33;;;23.70;58.50;;;;;;4936457;29;20020;-68
2022/05/29 02:04:19;;;;;;;12.40;3.47;;;23.70;58.30;;;;;;4934723;29;20028;-67
2022/05/29 02:09:40;;;;;;;12.88;3.08;;;23.60;59.10;;;;;;4936391;29;20066;-69
2022/05/29 02:12:10;;;;;;;10.43;2.67;;;23.50;59.00;;;;;;4936156;29;20027;-68
2022/05/29 02:14:43;;;;;;;12.02;2.88;;;23.50;59.10;;;;;;4936045;29;20031;-70
2022/05/29 02:17:14;;;;;;;15.57;3.45;;;23.40;59.10;;;;;;4935847;29;20043;-68
2022/05/29 02:19:57;;;;;;;8.55;2.75;;;23.40;59.10;;;;;;4936200;29;20019;-69
2022/05/29 02:22:27;;;;;;;11.45;3.17;;;23.40;59.20;;;;;;4935840;29;20042;-69
2022/05/29 02:25:04;;;;;;;10.40;3.35;;;23.40;59.30;;;;;;4935831;29;20499;-70
2022/05/29 02:27:43;;;;;;;19.25;3.60;;;23.40;59.20;;;;;;4935802;29;20378;-67
2022/05/29 02:30:09;;;;;;;11.30;3.55;;;23.40;59.00;;;;;;4935725;29;20024;-69
2022/05/29 02:32:51;;;;;;;8.55;3.28;;;23.30;59.20;;;;;;4935861;29;20042;-69
2022/05/29 02:35:24;;;;;;;10.40;3.10;;;23.30;59.10;;;;;;4935736;29;20147;-67
2022/05/29 02:38:00;;;;;;;11.27;3.22;;;23.20;59.60;;;;;;4935616;29;20035;-69
2022/05/29 02:40:32;;;;;;;13.43;3.30;;;23.20;59.90;;;;;;4935484;29;20024;-70
2022/05/29 02:43:06;;;;;;;11.88;3.78;;;23.20;59.80;;;;;;4935804;29;20028;-70
2022/05/29 02:45:37;;;;;;;12.98;3.50;;;23.20;60.00;;;;;;4935599;29;20035;-70
2022/05/29 02:48:08;;;;;;;10.60;3.30;;;23.30;60.00;;;;;;4935479;29;20027;-71
2022/05/29 02:50:57;;;;;;;11.25;2.92;;;23.20;60.00;;;;;;4935126;29;20168;-67
2022/05/29 02:53:24;;;;;;;9.15;3.42;;;23.20;59.90;;;;;;4935454;29;20497;-70
2022/05/29 02:55:50;;;;;;;11.52;3.05;;;23.10;60.20;;;;;;4936823;29;20473;-69
2022/05/29 02:58:23;;;;;;;9.95;3.42;;;23.10;60.40;;;;;;4939282;29;20043;-69
2022/05/29 03:01:13;;;;;;;15.73;3.65;;;23.00;60.50;;;;;;4939347;29;20481;-68
2022/05/29 03:04:04;;;;;;;13.75;3.28;;;23.10;60.70;;;;;;4939249;29;20385;-68
2022/05/29 03:06:45;;;;;;;13.13;3.00;;;23.20;60.20;;;;;;4939159;29;20035;-68
2022/05/29 03:09:44;;;;;;;11.73;3.60;;;23.20;60.30;;;;;;4939533;29;20036;-69
2022/05/29 03:12:30;;;;;;;11.30;3.70;;;23.20;60.10;;;;;;4937667;29;20493;-69
2022/05/29 03:15:11;;;;;;;11.15;3.67;;;23.20;60.10;;;;;;4937759;29;20030;-70
2022/05/29 03:18:02;;;;;;;10.98;3.88;;;23.30;60.40;;;;;;4938861;29;20432;-69
2022/05/29 03:21:05;;;;;;;10.07;3.63;;;23.30;60.10;;;;;;4938954;29;20024;-70
2022/05/29 03:24:23;;;;;;;11.30;3.05;;;23.40;60.40;;;;;;4938768;29;20044;-70
2022/05/29 03:27:12;;;;;;;15.43;3.70;;;23.50;60.60;;;;;;4898981;29;20522;-70
2022/05/29 03:29:54;;;;;;;14.15;3.40;;;23.50;60.30;;;;;;4898562;29;20024;-69
2022/05/29 03:32:21;;;;;;;12.32;3.40;;;23.50;60.60;;;;;;4931906;29;20036;-69
2022/05/29 03:34:46;;;;;;;15.02;3.97;;;23.60;60.60;;;;;;4939416;29;20028;-70
2022/05/29 03:37:12;;;;;;;12.05;3.97;;;23.60;60.90;;;;;;4938472;29;20082;-69
2022/05/29 03:39:38;;;;;;;16.48;3.30;;;23.50;60.90;;;;;;4938882;29;20062;-72
2022/05/29 03:42:05;;;;;;;13.65;3.70;;;23.40;61.00;;;;;;4937266;29;20046;-71
2022/05/29 03:44:31;;;;;;;14.13;3.72;;;23.40;61.20;;;;;;4939131;29;20028;-70
2022/05/29 03:46:56;;;;;;;16.40;3.38;;;23.40;61.10;;;;;;4938739;29;20472;-72
2022/05/29 03:49:23;;;;;;;13.10;3.83;;;23.40;61.30;;;;;;4938444;29;20111;-69
2022/05/29 03:51:49;;;;;;;10.52;3.38;;;23.40;61.20;;;;;;4938203;29;20051;-70
2022/05/29 03:54:15;;;;;;;10.60;3.45;;;23.40;61.10;;;;;;4938299;29;20393;-71
2022/05/29 03:56:41;;;;;;;13.48;3.70;;;23.40;61.20;;;;;;4938270;29;20024;-71
2022/05/29 03:59:07;;;;;;;10.18;3.47;;;23.40;61.20;;;;;;4938327;29;20481;-71
2022/05/29 04:01:34;;;;;;;13.13;3.83;;;23.40;61.40;;;;;;4938040;29;20031;-71
2022/05/29 04:04:00;;;;;;;12.80;3.35;;;23.50;61.40;;;;;;4938058;29;20086;-71
2022/05/29 04:06:27;;;;;;;11.25;3.20;;;23.40;61.50;;;;;;4938044;29;20438;-71
2022/05/29 04:14:25;;;;;;;12.30;4.00;;;23.40;61.70;;;;;;4938673;29;20047;-70
2022/05/29 04:16:52;;;;;;;12.60;3.50;;;23.30;61.60;;;;;;4937826;29;20393;-70
2022/05/29 04:19:19;;;;;;;18.85;3.33;;;23.40;61.80;;;;;;4937712;29;20118;-68
2022/05/29 04:21:45;;;;;;;12.93;3.78;;;23.40;61.60;;;;;;4937797;29;20030;-70
2022/05/29 04:24:11;;;;;;;12.38;3.47;;;23.40;61.60;;;;;;4937863;29;20035;-70
2022/05/29 04:26:37;;;;;;;13.02;3.20;;;23.40;61.60;;;;;;4937379;29;20122;-68
2022/05/29 04:29:05;;;;;;;10.57;3.60;;;23.30;61.60;;;;;;4937542;29;20532;-67
2022/05/29 04:31:32;;;;;;;13.80;3.40;;;23.30;61.40;;;;;;4937834;29;20020;-68
2022/05/29 04:33:58;;;;;;;9.77;3.17;;;23.30;61.40;;;;;;4937650;29;20031;-70
2022/05/29 04:36:24;;;;;;;13.57;3.38;;;23.40;61.20;;;;;;4937440;29;20050;-68
2022/05/29 04:38:51;;;;;;;14.30;3.80;;;23.30;61.00;;;;;;4937517;29;20059;-69
2022/05/29 04:41:19;;;;;;;12.35;3.45;;;23.30;61.30;;;;;;4937441;29;20039;-69
2022/05/29 04:43:45;;;;;;;9.35;3.10;;;23.20;61.40;;;;;;4937098;29;20504;-68
2022/05/29 04:46:11;;;;;;;13.25;3.20;;;23.20;61.70;;;;;;4935972;29;20473;-68
2022/05/29 04:48:37;;;;;;;19.20;3.30;;;23.30;61.40;;;;;;4937355;29;20461;-69
2022/05/29 04:51:06;;;;;;;11.23;3.22;;;23.20;61.40;;;;;;4937016;29;20110;-70
2022/05/29 04:53:32;;;;;;;13.77;3.17;;;23.30;61.60;;;;;;4937301;29;20533;-71
2022/05/29 04:55:59;;;;;;;11.40;3.53;;;23.40;62.00;;;;;;4937206;29;20032;-70
2022/05/29 04:58:26;;;;;;;15.35;3.90;;;23.40;61.60;;;;;;4937114;29;20178;-69
2022/05/29 05:01:00;;;;;;;11.18;3.38;;;23.40;61.50;;;;;;4936930;29;20035;-70
2022/05/29 05:03:26;;;;;;;11.45;3.40;;;23.30;61.30;;;;;;4935757;29;20030;-70
2022/05/29 05:05:51;;;;;;;16.20;3.80;;;23.30;61.60;;;;;;4935748;29;20105;-70
2022/05/29 05:08:17;;;;;;;11.88;2.95;;;23.30;61.60;;;;;;4937150;29;20031;-68
2022/05/29 05:10:43;;;;;;;13.10;3.42;;;23.30;61.80;;;;;;4937008;29;20028;-68
2022/05/29 05:13:09;;;;;;;13.50;3.50;;;23.40;61.90;;;;;;4937026;29;20020;-69
2022/05/29 05:15:35;;;;;;;17.55;3.72;;;23.50;61.70;;;;;;4935653;29;20031;-68
2022/05/29 05:18:01;;;;;;;13.82;3.30;;;23.80;62.00;;;;;;4936670;29;20042;-69
2022/05/29 05:20:28;;;;;;;10.55;3.17;;;24.00;60.80;;;;;;4935804;29;20020;-69
2022/05/29 05:22:54;;;;;;;14.10;3.38;;;24.10;60.30;;;;;;4936726;29;20030;-68
2022/05/29 05:25:20;;;;;;;11.05;3.33;;;24.20;60.00;;;;;;4936742;29;20103;-68
2022/05/29 05:27:45;;;;;;;13.38;3.28;;;24.20;59.50;;;;;;4936598;29;20560;-69
2022/05/29 05:30:12;;;;;;;13.43;3.42;;;24.40;59.30;;;;;;4936492;29;20123;-68
2022/05/29 05:32:37;;;;;;;14.40;3.85;;;24.40;59.90;;;;;;4936335;29;20387;-68
2022/05/29 05:35:06;;;;;;;16.48;4.25;;;24.40;58.80;;;;;;4936546;29;20032;-68
2022/05/29 05:37:37;;;;;;;13.35;3.38;;;24.50;59.10;;;;;;4935178;29;20090;-67
2022/05/29 05:40:11;;;;;;;15.35;3.70;;;24.50;59.00;;;;;;4936314;29;20523;-68
2022/05/29 05:42:37;;;;;;;11.43;2.85;;;24.60;58.30;;;;;;4936152;29;20034;-68
2022/05/29 05:45:07;;;;;;;15.18;3.80;;;24.90;58.00;;;;;;4935147;29;20389;-69
2022/05/29 05:47:34;;;;;;;12.88;3.63;;;25.10;56.70;;;;;;4936071;29;20055;-70
2022/05/29 05:49:59;;;;;;;12.77;3.35;;;25.40;56.70;;;;;;4935782;29;20035;-71
2022/05/29 05:52:25;;;;;;;12.57;3.85;;;25.70;55.90;;;;;;4936219;29;20112;-72
2022/05/29 05:54:51;;;;;;;12.88;3.17;;;26.00;55.20;;;;;;4934611;29;20059;-71
2022/05/29 05:57:18;;;;;;;12.00;3.47;;;26.20;54.50;;;;;;4935922;29;20048;-70
2022/05/29 05:59:45;;;;;;;9.75;3.10;;;26.40;54.10;;;;;;4935972;29;20090;-71
2022/05/29 06:02:11;;;;;;;12.05;3.80;;;26.80;53.70;;;;;;4936092;29;20034;-70
2022/05/29 06:04:41;;;;;;;14.75;4.47;;;27.10;52.90;;;;;;4935811;29;20038;-70
2022/05/29 06:07:08;;;;;;;13.93;3.20;;;27.30;51.20;;;;;;4935837;29;20050;-71
2022/05/29 06:09:36;;;;;;;14.13;3.30;;;27.50;51.90;;;;;;4935732;29;20024;-68
2022/05/29 06:12:03;;;;;;;15.38;3.78;;;27.50;51.60;;;;;;4936016;29;20031;-69
2022/05/29 06:14:29;;;;;;;12.50;3.50;;;27.40;51.20;;;;;;4937633;29;20019;-72
2022/05/29 06:16:58;;;;;;;10.38;3.30;;;27.60;51.50;;;;;;4937336;29;20031;-70
2022/05/29 06:19:24;;;;;;;11.50;3.65;;;27.70;51.20;;;;;;4935506;29;20035;-71
2022/05/29 06:21:49;;;;;;;15.90;3.75;;;27.80;50.70;;;;;;4935910;29;20386;-71
2022/05/29 06:24:15;;;;;;;13.30;3.88;;;27.80;50.80;;;;;;4935860;29;20114;-71
2022/05/29 06:26:41;;;;;;;10.80;3.50;;;28.00;50.50;;;;;;4935905;29;20470;-71
2022/05/29 06:29:07;;;;;;;16.05;3.55;;;28.10;50.10;;;;;;4935472;29;20027;-71
2022/05/29 06:31:33;;;;;;;13.70;3.88;;;28.10;50.30;;;;;;4935312;29;20043;-69
2022/05/29 06:33:59;;;;;;;16.45;3.45;;;28.30;49.90;;;;;;4935720;29;20016;-70
2022/05/29 06:36:26;;;;;;;9.95;3.03;;;28.50;49.70;;;;;;4935420;29;20067;-73
2022/05/29 06:38:54;;;;;;;16.15;3.60;;;28.60;49.70;;;;;;4935427;29;20493;-71
2022/05/29 06:41:21;;;;;;;19.17;4.30;;;28.80;49.40;;;;;;4918423;29;20031;-70
2022/05/29 06:43:51;;;;;;;12.85;3.80;;;28.70;49.10;;;;;;4935414;29;20494;-72
2022/05/29 06:46:17;;;;;;;10.65;3.65;;;28.90;49.10;;;;;;4935312;29;20066;-70
2022/05/29 06:48:43;;;;;;;11.32;3.60;;;29.00;49.20;;;;;;4935496;29;20028;-69
2022/05/29 06:51:15;;;;;;;14.90;3.60;;;29.00;48.60;;;;;;4935213;29;20107;-70
2022/05/29 06:53:41;;;;;;;14.73;3.75;;;29.10;47.10;;;;;;4935515;29;20027;-69
2022/05/29 06:56:08;;;;;;;16.60;4.43;;;29.10;48.60;;;;;;4935522;29;20508;-72
2022/05/29 06:58:34;;;;;;;11.95;3.63;;;29.20;48.80;;;;;;4934925;29;20401;-70
2022/05/29 07:09:19;;;;;;;16.80;4.70;;;29.60;46.80;;;;;;4916381;29;20106;-72
2022/05/29 07:11:48;;;;;;;13.10;3.78;;;29.50;47.40;;;;;;4916180;29;20059;-73
2022/05/29 07:14:15;;;;;;;14.60;3.80;;;29.50;48.00;;;;;;4915244;29;20055;-74
2022/05/29 07:16:42;;;;;;;17.15;4.30;;;29.60;47.70;;;;;;4916170;29;20090;-71
2022/05/29 07:19:08;;;;;;;14.52;3.88;;;29.60;47.70;;;;;;4915759;29;20479;-70
2022/05/29 07:21:41;;;;;;;15.15;3.58;;;29.50;47.70;;;;;;4915009;29;20035;-73
2022/05/29 07:24:07;;;;;;;14.30;4.07;;;29.50;46.60;;;;;;4916288;29;20128;-70
2022/05/29 07:26:34;;;;;;;17.90;4.93;;;29.60;48.00;;;;;;4916242;29;20099;-72
2022/05/29 07:29:00;;;;;;;14.43;4.55;;;29.60;48.50;;;;;;4915811;29;20026;-70
2022/05/29 07:31:27;;;;;;;17.75;4.28;;;29.60;47.20;;;;;;4915896;29;20027;-72
2022/05/29 07:33:55;;;;;;;20.10;4.32;;;29.50;46.30;;;;;;4926450;29;20046;-69
2022/05/29 07:36:24;;;;;;;9.93;3.30;;;29.50;47.50;;;;;;4933654;29;20083;-73
2022/05/29 07:38:50;;;;;;;15.75;3.72;;;29.40;47.90;;;;;;4935042;29;20457;-71
2022/05/29 07:44:00;;;;;;;13.93;3.90;;;29.70;47.10;;;;;;4937755;29;20042;-69
2022/05/29 07:46:26;;;;;;;17.60;4.00;;;29.90;47.50;;;;;;4938327;29;20028;-70
2022/05/29 07:48:52;;;;;;;14.07;3.58;;;30.00;47.20;;;;;;4938097;29;20396;-70
2022/05/29 07:51:18;;;;;;;9.85;3.53;;;30.00;47.10;;;;;;4936514;29;20474;-71
2022/05/29 07:53:44;;;;;;;19.50;4.32;;;29.80;47.30;;;;;;4938390;29;20055;-70
2022/05/29 07:56:10;;;;;;;12.77;3.67;;;29.80;47.30;;;;;;4938511;29;20096;-73
2022/05/29 07:58:40;;;;;;;12.55;3.83;;;29.90;46.90;;;;;;4938175;29;20027;-73
2022/05/29 08:01:06;;;;;;;17.83;4.55;;;29.90;46.30;;;;;;4938090;29;20374;-80
2022/05/29 08:03:32;;;;;;;17.92;4.20;;;29.90;48.20;;;;;;4938035;29;20464;-70
2022/05/29 08:05:58;;;;;;;18.85;4.50;;;29.90;47.20;;;;;;4937920;29;20107;-69
2022/05/29 08:08:25;;;;;;;14.80;4.50;;;29.90;47.20;;;;;;4937635;29;20050;-71
2022/05/29 08:10:51;;;;;;;17.38;4.30;;;29.90;47.90;;;;;;4937391;29;20035;-70
2022/05/29 08:13:17;;;;;;;14.43;3.95;;;29.70;47.00;;;;;;4921460;29;20081;-68
2022/05/29 08:15:42;;;;;;;17.95;4.15;;;29.50;47.30;;;;;;4936101;29;20104;-69
2022/05/29 08:18:09;;;;;;;13.93;3.83;;;29.50;47.50;;;;;;4936349;29;20036;-69
2022/05/29 08:20:36;;;;;;;16.55;4.28;;;29.40;47.40;;;;;;4937577;29;20083;-67
2022/05/29 08:23:03;;;;;;;19.33;4.35;;;29.50;48.00;;;;;;4927260;29;20123;-68
2022/05/29 08:31:32;;;;;;;13.63;3.72;;;29.20;47.70;;;;;;5106566;28;20054;-71
2022/05/29 08:33:58;;;;;;;17.75;5.07;;;29.20;47.80;;;;;;5101600;28;20038;-72
2022/05/29 08:36:26;;;;;;;13.90;4.35;;;29.00;48.50;;;;;;5110584;28;20122;-68
2022/05/29 08:38:55;;;;;;;19.15;4.68;;;29.00;49.30;;;;;;5110047;28;20030;-71
2022/05/29 08:41:31;;;;;;;98.53;12.05;;;28.90;48.70;;;;;;5109361;28;20034;-68
2022/05/29 08:44:07;;;;;;;18.27;4.55;;;28.80;48.80;;;;;;5110312;28;20028;-70
2022/05/29 08:46:52;;;;;;;15.60;4.32;;;28.80;48.50;;;;;;5110028;28;20031;-71
2022/05/29 08:49:22;;;;;;;14.35;4.38;;;28.80;48.50;;;;;;5109818;28;20080;-69
2022/05/29 08:51:50;;;;;;;11.73;4.25;;;28.60;48.50;;;;;;5109806;28;20027;-69
2022/05/29 08:54:31;;;;;;;20.38;5.10;;;28.60;47.30;;;;;;5109831;28;20063;-70
2022/05/29 08:57:29;;;;;;;17.83;4.43;;;28.70;47.50;;;;;;5109905;28;20026;-69
2022/05/29 09:00:01;;;;;;;14.15;4.20;;;28.80;47.40;;;;;;5091141;28;20047;-70
2022/05/29 09:02:50;;;;;;;14.68;4.35;;;28.80;49.40;;;;;;5109787;28;20065;-70
2022/05/29 09:05:37;;;;;;;17.33;4.50;;;28.80;48.50;;;;;;5109803;28;20051;-73
2022/05/29 09:08:30;;;;;;;13.30;4.28;;;28.80;48.90;;;;;;5109373;28;20123;-75
2022/05/29 09:11:06;;;;;;;13.55;4.43;;;28.70;49.10;;;;;;5101770;28;20489;-72
2022/05/29 09:13:40;;;;;;;14.68;4.47;;;28.70;49.00;;;;;;5109768;28;20427;-74
2022/05/29 09:16:18;;;;;;;20.85;4.88;;;28.80;49.20;;;;;;5109886;28;20049;-73
2022/05/29 09:19:01;;;;;;;21.17;4.68;;;29.00;49.80;;;;;;5109954;28;20024;-69
2022/05/29 09:21:36;;;;;;;14.90;5.03;;;29.00;49.70;;;;;;5110129;28;20184;-68
2022/05/29 09:24:11;;;;;;;19.55;4.55;;;29.10;49.80;;;;;;5109450;28;20020;-71
2022/05/29 09:26:38;;;;;;;20.50;5.07;;;29.10;49.80;;;;;;5109322;28;20032;-70
2022/05/29 09:29:06;;;;;;;15.07;4.70;;;29.00;49.90;;;;;;5109540;28;20044;-70
2022/05/29 09:31:32;;;;;;;19.42;5.05;;;29.00;49.90;;;;;;5109621;28;20028;-72
2022/05/29 09:33:59;;;;;;;13.77;4.78;;;29.00;50.10;;;;;;5109511;28;20031;-68
2022/05/29 09:36:42;;;;;;;16.20;4.30;;;29.00;50.00;;;;;;5109365;28;20034;-70
2022/05/29 09:39:43;;;;;;;30.48;5.80;;;29.00;48.80;;;;;;5101228;28;20031;-71
2022/05/29 09:42:23;;;;;;;18.50;4.90;;;29.00;49.10;;;;;;5075709;28;20469;-72
2022/05/29 09:45:17;;;;;;;16.55;5.25;;;29.00;50.60;;;;;;5095481;28;20488;-71
2022/05/29 09:50:51;;;;;;;18.75;5.20;;;28.90;50.60;;;;;;5095838;28;20031;-71
2022/05/29 09:53:24;;;;;;;15.48;5.07;;;28.90;49.80;;;;;;5077188;28;20485;-72
2022/05/29 09:55:58;;;;;;;15.88;4.53;;;28.90;51.20;;;;;;5077377;28;20020;-68
2022/05/29 09:58:55;;;;;;;13.88;4.90;;;28.80;51.20;;;;;;5095282;28;20112;-69
2022/05/29 10:01:40;;;;;;;18.73;4.95;;;28.80;50.10;;;;;;5090412;28;20032;-72
2022/05/29 10:04:12;;;;;;;17.75;5.28;;;28.80;50.00;;;;;;5095184;28;20116;-70
2022/05/29 10:06:43;;;;;;;12.68;4.40;;;28.90;51.50;;;;;;5094985;28;20024;-71
2022/05/29 10:09:17;;;;;;;19.63;5.32;;;28.90;51.60;;;;;;5094895;28;20039;-73
2022/05/29 10:11:46;;;;;;;16.70;4.63;;;29.00;50.00;;;;;;5094907;28;20085;-72
2022/05/29 10:14:33;;;;;;;16.88;4.68;;;28.90;51.30;;;;;;5095087;28;20045;-70
2022/05/29 10:17:00;;;;;;;16.02;4.78;;;28.90;49.90;;;;;;5094964;28;20032;-71
2022/05/29 10:19:35;;;;;;;16.40;4.80;;;28.90;51.50;;;;;;5095132;28;20028;-69
2022/05/29 10:22:08;;;;;;;31.77;5.97;;;29.00;50.50;;;;;;5095142;28;20036;-72
2022/05/29 10:24:37;;;;;;;;;;;29.00;50.60;;;;;;5095687;28;20020;-70
2022/05/29 10:27:13;;;;;;;17.08;5.15;;;28.90;51.40;;;;;;5094559;28;19915;-70
2022/05/29 10:29:42;;;;;;;19.75;5.18;;;28.90;52.40;;;;;;5076543;28;20129;-70
2022/05/29 10:32:10;;;;;;;18.10;5.28;;;28.80;52.30;;;;;;5094256;28;20032;-70
2022/05/29 10:34:41;;;;;;;16.58;4.22;;;28.80;52.60;;;;;;5093917;28;20445;-71
2022/05/29 10:37:37;;;;;;;18.08;5.25;;;28.80;52.40;;;;;;5095178;28;20372;-70
2022/05/29 10:40:19;;;;;;;19.20;5.32;;;28.80;53.10;;;;;;5076847;28;20042;-69
2022/05/29 10:43:04;;;;;;;16.83;4.80;;;28.90;53.20;;;;;;5094887;28;20028;-69
2022/05/29 10:45:48;;;;;;;23.73;5.32;;;29.00;51.40;;;;;;5094427;28;20066;-66
2022/05/29 10:48:16;;;;;;;14.50;4.80;;;29.10;52.90;;;;;;5094595;28;20028;-68
2022/05/29 10:50:57;;;;;;;18.42;5.30;;;29.20;51.20;;;;;;5093436;28;20024;-65
2022/05/29 10:53:55;;;;;;;17.38;5.10;;;29.20;51.10;;;;;;5094311;28;20055;-77
2022/05/29 10:56:59;;;;;;;19.73;5.10;;;29.30;51.10;;;;;;5061853;28;20043;-79
2022/05/29 10:59:39;;;;;;;21.73;6.30;;;29.20;51.10;;;;;;5093813;28;20028;-71
2022/05/29 11:05:27;;;;;;;22.30;4.90;;;29.20;51.00;;;;;;5064917;28;20047;-69
2022/05/29 11:07:58;;;;;;;21.58;5.03;;;29.30;50.90;;;;;;5093999;28;20044;-69
2022/05/29 11:10:27;;;;;;;16.50;4.63;;;29.30;51.10;;;;;;5093864;28;20035;-77
2022/05/29 11:13:00;;;;;;;21.55;5.70;;;29.30;50.70;;;;;;5093967;28;20042;-69
2022/05/29 11:15:58;;;;;;;18.55;5.53;;;29.40;52.90;;;;;;5093952;28;20441;-72
2022/05/29 11:19:11;;;;;;;26.70;6.05;;;29.40;52.60;;;;;;5061183;28;20040;-72
2022/05/29 11:22:07;;;;;;;19.92;5.60;;;29.50;51.40;;;;;;5032205;28;20036;-74
2022/05/29 11:24:54;;;;;;;15.02;4.80;;;29.50;50.70;;;;;;5093487;28;20024;-68
2022/05/29 11:27:59;;;;;;;18.33;4.00;;;29.40;50.50;;;;;;5093155;28;20044;-72
2022/05/29 11:30:35;;;;;;;17.65;4.63;;;29.40;50.60;;;;;;5048642;28;20499;-70
2022/05/29 11:33:36;;;;;;;12.18;4.45;;;29.30;50.70;;;;;;5093376;28;20077;-70
2022/05/29 11:36:21;;;;;;;17.77;4.85;;;29.30;50.50;;;;;;5060748;28;20429;-71
2022/05/29 11:39:05;;;;;;;17.38;5.30;;;29.30;50.80;;;;;;5093424;28;20020;-68
2022/05/29 11:41:43;;;;;;;22.63;5.25;;;29.40;51.20;;;;;;5093332;28;20154;-66
2022/05/29 11:44:32;;;;;;;18.83;5.45;;;29.50;52.80;;;;;;5091501;28;20035;-66
2022/05/29 11:53:26;;;;;;;18.73;5.25;;;29.50;53.00;;;;;;5090949;28;20101;-70
2022/05/29 11:55:56;;;;;;;16.60;5.40;;;29.50;52.80;;;;;;5092558;28;20039;-69
2022/05/29 11:58:33;;;;;;;16.55;4.50;;;29.60;53.00;;;;;;5093058;28;20028;-69
2022/05/29 12:01:23;;;;;;;18.83;4.82;;;29.60;53.50;;;;;;5093138;28;20028;-68
2022/05/29 12:03:57;;;;;;;15.15;4.68;;;29.50;53.00;;;;;;5092832;28;20020;-67
2022/05/29 12:06:35;;;;;;;16.85;5.35;;;29.50;53.40;;;;;;5092815;28;20031;-66
2022/05/29 12:09:31;;;;;;;18.80;4.88;;;29.60;53.40;;;;;;5092255;28;20024;-66
2022/05/29 12:12:06;;;;;;;20.40;5.07;;;29.60;51.80;;;;;;5088346;28;20135;-67
2022/05/29 12:15:06;;;;;;;22.40;6.40;;;29.60;53.00;;;;;;5092562;28;20488;-69
2022/05/29 12:17:58;;;;;;;19.42;5.53;;;29.70;51.70;;;;;;5088063;28;20044;-69
2022/05/29 12:20:33;;;;;;;21.33;4.72;;;29.80;53.60;;;;;;5092442;28;20074;-67
2022/05/29 12:23:06;;;;;;;17.17;4.38;;;29.80;51.70;;;;;;5092589;28;20040;-70
2022/05/29 12:25:49;;;;;;;19.90;4.72;;;29.80;53.50;;;;;;5092177;28;20202;-67
2022/05/29 12:28:48;;;;;;;22.58;4.57;;;29.90;51.80;;;;;;5074872;28;20070;-68
2022/05/29 12:31:39;;;;;;;21.27;4.72;;;29.90;51.30;;;;;;5092044;28;20048;-67
2022/05/29 12:34:07;;;;;;;13.27;4.43;;;29.90;52.90;;;;;;5091695;28;20027;-69
2022/05/29 12:36:57;;;;;;;16.98;4.97;;;29.90;53.00;;;;;;5092467;28;20024;-69
2022/05/29 12:39:52;;;;;;;23.50;4.57;;;29.90;51.60;;;;;;5092264;28;20129;-67
2022/05/29 12:42:37;;;;;;;16.60;4.15;;;29.80;52.90;;;;;;5092656;28;20023;-70
2022/05/29 12:45:31;;;;;;;19.40;5.32;;;29.90;52.80;;;;;;5092851;28;20070;-70
2022/05/29 12:48:21;;;;;;;19.75;4.65;;;29.90;51.20;;;;;;5092673;28;20081;-69
2022/05/29 12:51:23;;;;;;;17.42;5.05;;;29.90;51.40;;;;;;5092451;28;20024;-71
2022/05/29 12:54:10;;;;;;;19.70;5.15;;;29.80;50.60;;;;;;5087235;28;20028;-70
2022/05/29 12:56:51;;;;;;;22.85;5.38;;;29.80;51.70;;;;;;5072391;28;20066;-69
2022/05/29 12:59:50;;;;;;;23.55;5.32;;;29.90;51.80;;;;;;5072135;28;20040;-70
2022/05/29 13:02:50;;;;;;;18.27;4.97;;;29.90;50.60;;;;;;5072859;28;20104;-68
2022/05/29 13:05:35;;;;;;;20.67;4.72;;;29.90;51.10;;;;;;5090817;28;20047;-74
2022/05/29 13:08:00;;;;;;;19.35;4.57;;;29.90;50.60;;;;;;5092438;28;20050;-71
2022/05/29 13:10:36;;;;;;;17.92;4.85;;;29.90;51.20;;;;;;5092191;28;20417;-71
2022/05/29 13:13:13;;;;;;;18.42;4.90;;;29.90;51.40;;;;;;5092628;28;20028;-70
2022/05/29 13:15:40;;;;;;;21.00;4.63;;;29.80;50.20;;;;;;5079237;28;20020;-70
2022/05/29 13:18:11;;;;;;;15.15;4.18;;;29.80;52.40;;;;;;5077981;28;20383;-70
2022/05/29 13:21:05;;;;;;;17.67;5.25;;;29.70;52.10;;;;;;5096263;28;20024;-70
2022/05/29 13:23:32;;;;;;;;;;;29.80;50.70;;;;;;5078219;28;20089;-72
2022/05/29 13:25:58;;;;;;;21.10;4.50;;;29.70;52.40;;;;;;5096148;28;19904;-70
2022/05/29 13:28:43;;;;;;;18.50;4.95;;;29.80;52.10;;;;;;5095508;28;20055;-71
2022/05/29 13:31:14;;;;;;;17.48;4.50;;;29.70;50.70;;;;;;5095618;28;20384;-68
2022/05/29 13:34:24;;;;;;;18.08;5.00;;;29.70;52.40;;;;;;5095818;28;20028;-69
2022/05/29 13:36:52;;;;;;;14.93;4.35;;;29.60;51.00;;;;;;5095961;28;20046;-70
2022/05/29 13:39:33;;;;;;;14.13;3.65;;;29.50;52.30;;;;;;5094888;28;20036;-71
2022/05/29 13:42:21;;;;;;;16.42;3.97;;;29.40;52.50;;;;;;5077335;28;20039;-71
2022/05/29 13:44:47;;;;;;;20.08;4.50;;;29.30;52.10;;;;;;5081492;28;20111;-72
2022/05/29 13:47:22;;;;;;;19.23;4.05;;;29.30;52.40;;;;;;5077350;28;20029;-72
2022/05/29 13:50:11;;;;;;;22.58;4.80;;;29.30;52.40;;;;;;5105684;22;20036;-75
2022/05/29 13:52:55;;;;;;;21.92;4.35;;;29.40;51.00;;;;;;5050405;28;20040;-74